createdAt,value
2023-07-24T00:06:04.161Z,8.89
2023-07-24T00:10:48.354Z,15.6
2023-07-24T00:15:32.544Z,11.9
2023-07-24T00:20:16.637Z,13.2
2023-07-24T00:25:00.802Z,16
2023-07-24T00:29:45.015Z,12.9
2023-07-24T00:34:29.132Z,12.2
2023-07-24T00:39:13.458Z,10.8
2023-07-24T00:43:57.631Z,11
2023-07-24T00:48:41.858Z,10.6
2023-07-24T00:53:25.962Z,10.6
2023-07-24T00:58:10.149Z,9.5
2023-07-24T01:02:54.357Z,10.6
2023-07-24T01:07:38.544Z,11.5
2023-07-24T01:12:23.134Z,10.2
2023-07-24T01:17:07.368Z,8.89
2023-07-24T01:21:51.468Z,12.1
2023-07-24T01:26:35.790Z,11
2023-07-24T01:31:19.858Z,10.5
2023-07-24T01:36:04.011Z,14.4
2023-07-24T01:40:48.208Z,15.3
2023-07-24T01:45:32.321Z,12.5
2023-07-24T01:50:16.493Z,16.79
2023-07-24T01:55:00.653Z,10.2
2023-07-24T01:59:44.846Z,10.9
2023-07-24T02:04:29.348Z,10.6
2023-07-24T02:09:13.537Z,10.8
2023-07-24T02:13:57.744Z,10
2023-07-24T02:18:41.855Z,10.9
2023-07-24T02:23:26.020Z,13.2
2023-07-24T02:28:10.187Z,14.1
2023-07-24T02:32:54.769Z,13.1
2023-07-24T02:37:39.226Z,13.4
2023-07-24T02:42:23.436Z,16.5
2023-07-24T02:47:07.588Z,14
2023-07-24T02:51:51.749Z,19
2023-07-24T02:56:35.925Z,19.1
2023-07-24T03:01:20.059Z,17.4
2023-07-24T03:06:04.751Z,12.9
2023-07-24T03:10:48.930Z,17.6
2023-07-24T03:15:33.232Z,18.6
2023-07-24T03:20:17.433Z,14.2
2023-07-24T03:25:01.638Z,18.5
2023-07-24T03:29:45.738Z,19.5
2023-07-24T03:34:29.920Z,25.9
2023-07-24T03:39:14.152Z,19.79
2023-07-24T03:43:58.254Z,15.9
2023-07-24T03:48:42.445Z,14.8
2023-07-24T03:53:26.585Z,11.6
2023-07-24T03:58:10.762Z,12.3
2023-07-24T04:02:54.979Z,14.3
2023-07-24T04:07:39.278Z,13.3
2023-07-24T04:12:23.297Z,19.2
2023-07-24T04:17:07.437Z,13
2023-07-24T04:21:51.708Z,13.9
2023-07-24T04:26:35.811Z,14
2023-07-24T04:31:20.017Z,18.79
2023-07-24T04:36:04.217Z,19
2023-07-24T04:40:48.471Z,16.4
2023-07-24T04:50:16.736Z,14.3
2023-07-24T04:55:00.847Z,8.5
2023-07-24T05:04:29.346Z,10.1
2023-07-24T05:09:13.562Z,12.3
2023-07-24T05:18:41.834Z,13.4
2023-07-24T05:23:26.002Z,11.7
2023-07-24T05:28:10.185Z,15.3
2023-07-24T05:32:54.324Z,11.9
2023-07-24T05:37:38.861Z,13
2023-07-24T05:42:23.098Z,11.9
2023-07-24T05:47:07.207Z,9
2023-07-24T05:51:51.366Z,10.8
2023-07-24T05:56:35.589Z,8.3
2023-07-24T06:01:19.723Z,13.3
2023-07-24T06:06:03.898Z,15
2023-07-24T06:10:48.036Z,10.4
2023-07-24T06:15:32.252Z,14.2
2023-07-24T06:20:16.543Z,11
2023-07-24T06:25:00.751Z,10.1
2023-07-24T06:29:44.797Z,8.8
2023-07-24T06:34:28.975Z,11.9
2023-07-24T06:39:13.126Z,10.1
2023-07-24T06:43:57.389Z,11.4
2023-07-24T06:48:41.472Z,13
2023-07-24T06:53:25.576Z,15.1
2023-07-24T06:58:10.061Z,13.6
2023-07-24T07:02:54.096Z,12.6
2023-07-24T07:17:06.602Z,11.3
2023-07-24T07:21:50.831Z,13.8
2023-07-24T07:26:34.975Z,10.1
2023-07-24T07:31:19.123Z,9
2023-07-24T07:36:03.366Z,12.9
2023-07-24T07:40:47.449Z,8.3
2023-07-24T07:45:31.809Z,9.8
2023-07-24T07:50:15.854Z,9.2
2023-07-24T07:54:59.972Z,11.9
2023-07-24T07:59:44.168Z,11.8
2023-07-24T08:04:28.463Z,10
2023-07-24T08:13:56.682Z,12.2
2023-07-24T08:18:41.193Z,12.8
2023-07-24T08:23:25.709Z,8.1
2023-07-24T08:28:09.914Z,9.8
2023-07-24T08:32:54.004Z,9.1
2023-07-24T08:37:38.512Z,9.3
2023-07-24T08:47:07.054Z,13.4
2023-07-24T08:51:50.555Z,11.8
2023-07-24T08:56:33.844Z,11.6
2023-07-24T09:01:17.077Z,9.7
2023-07-24T09:06:00.350Z,13.2
2023-07-24T09:10:43.168Z,9.8
2023-07-24T09:24:52.967Z,7.4
2023-07-24T09:39:02.773Z,8
2023-07-24T09:43:46.008Z,8.1
2023-07-24T09:53:12.588Z,7.6
2023-07-24T09:57:55.813Z,13.6
2023-07-24T10:07:22.407Z,7.8
2023-07-24T10:12:05.606Z,8.1
2023-07-24T10:16:48.907Z,6.6
2023-07-24T10:21:31.914Z,6.5
2023-07-24T10:26:15.108Z,7
2023-07-24T10:30:58.432Z,12.8
2023-07-24T10:35:41.759Z,8.1
2023-07-24T10:40:24.935Z,9.89
2023-07-24T10:49:51.422Z,13.8
2023-07-24T10:54:34.752Z,10.2
2023-07-24T11:18:11.071Z,12.1
2023-07-24T11:22:54.379Z,10.4
2023-07-24T11:27:37.181Z,13.1
2023-07-24T11:37:03.695Z,12.2
2023-07-24T11:46:30.440Z,10.5
2023-07-24T11:51:13.511Z,15.8
2023-07-24T12:00:40.238Z,17
2023-07-24T12:05:23.257Z,16.2
2023-07-24T12:10:06.512Z,28.1
2023-07-24T12:14:49.798Z,7.2
2023-07-24T12:19:33.127Z,10.6
2023-07-24T12:24:16.404Z,9.7
2023-07-24T12:28:59.655Z,10.2
2023-07-24T12:33:42.938Z,8.89
2023-07-24T12:38:26.143Z,9
2023-07-24T12:43:09.422Z,9.1
2023-07-24T12:47:52.729Z,8.1
2023-07-24T12:52:35.548Z,8
2023-07-24T12:57:18.902Z,8.6
2023-07-24T13:02:02.317Z,9.1
2023-07-24T13:06:45.637Z,12
2023-07-24T13:16:11.888Z,12.4
2023-07-24T13:20:55.215Z,8.3
2023-07-24T13:25:38.514Z,8.1
2023-07-24T13:30:21.720Z,7.2
2023-07-24T13:35:05.067Z,11.4
2023-07-24T13:39:48.230Z,10.7
2023-07-24T13:44:31.567Z,6.8
2023-07-24T13:49:14.817Z,14.6
2023-07-24T13:53:58.016Z,7.3
2023-07-24T13:58:41.395Z,7.2
2023-07-24T14:08:07.548Z,6.6
2023-07-24T14:17:34.077Z,9.3
2023-07-24T14:22:17.325Z,6.8
2023-07-24T14:27:00.654Z,4.69
2023-07-24T14:31:43.939Z,6
2023-07-24T14:36:26.851Z,6.7
2023-07-24T14:41:09.953Z,7
2023-07-24T14:45:53.245Z,6.8
2023-07-24T14:50:36.504Z,6.2
2023-07-24T14:55:19.939Z,6.7
2023-07-24T15:00:03.087Z,8
2023-07-24T15:04:46.613Z,7.6
2023-07-24T15:18:56.076Z,4.69
2023-07-24T15:23:39.426Z,6
2023-07-24T15:33:06.015Z,5.9
2023-07-24T15:37:49.222Z,5
2023-07-24T15:42:32.460Z,5.3
2023-07-24T15:51:58.930Z,6.1
2023-07-24T15:56:42.207Z,3.6
2023-07-24T16:01:25.459Z,3.8
2023-07-24T16:06:08.758Z,4.4
2023-07-24T16:10:52.192Z,4.69
2023-07-24T16:15:35.267Z,4.9
2023-07-24T16:20:18.526Z,5.2
2023-07-24T16:25:00.939Z,9.3
2023-07-24T16:29:43.622Z,4.19
2023-07-24T16:34:26.439Z,4.6
2023-07-24T16:39:09.218Z,4.9
2023-07-24T16:43:51.850Z,9.7
2023-07-24T16:48:34.602Z,3.6
2023-07-24T16:53:17.299Z,3.5
2023-07-24T17:07:25.505Z,2.9
2023-07-24T17:12:08.220Z,3
2023-07-24T17:16:50.961Z,3.8
2023-07-24T17:21:33.724Z,4.19
2023-07-24T17:26:16.432Z,6.6
2023-07-24T17:30:59.151Z,8.2
2023-07-24T17:35:41.869Z,6.2
2023-07-24T17:40:24.644Z,5.3
2023-07-24T17:45:07.345Z,4
2023-07-24T17:49:50.081Z,4.19
2023-07-24T17:54:32.860Z,5.4
2023-07-24T17:59:15.635Z,5.3
2023-07-24T18:03:58.355Z,5.2
2023-07-24T18:13:23.740Z,4.9
2023-07-24T18:22:49.726Z,3.5
2023-07-24T18:27:32.999Z,4
2023-07-24T18:32:16.230Z,4.69
2023-07-24T18:36:59.594Z,4.1
2023-07-24T18:41:42.786Z,6.4
2023-07-24T18:46:26.109Z,7.1
2023-07-24T18:51:09.327Z,4.1
2023-07-24T18:55:52.864Z,6.1
2023-07-24T19:00:35.878Z,3.5
2023-07-24T19:05:19.223Z,2.3
2023-07-24T19:10:02.450Z,3
2023-07-24T19:14:45.636Z,4
2023-07-24T19:19:28.933Z,2.2
2023-07-24T19:24:13.200Z,4.1
2023-07-24T19:28:57.621Z,3.2
2023-07-24T19:33:41.451Z,2.9
2023-07-24T19:38:25.596Z,2.9
2023-07-24T19:43:09.770Z,3.8
2023-07-24T19:47:54.006Z,4
2023-07-24T19:52:38.295Z,8.6
2023-07-24T19:57:22.501Z,4
2023-07-24T20:02:06.658Z,4.19
2023-07-24T20:06:50.790Z,5.5
2023-07-24T20:11:34.966Z,6.6
2023-07-24T20:16:19.195Z,2.9
2023-07-24T20:21:03.308Z,3.4
2023-07-24T20:25:47.508Z,3.3
2023-07-24T20:30:31.704Z,3.7
2023-07-24T20:35:15.994Z,5.1
2023-07-24T20:40:00.154Z,3.4
2023-07-24T20:44:44.310Z,2.6
2023-07-24T20:49:28.768Z,3.8
2023-07-24T20:54:12.847Z,3.6
2023-07-24T20:58:57.086Z,3.3
2023-07-24T21:03:41.207Z,5.2
2023-07-24T21:08:25.350Z,4
2023-07-24T21:13:09.696Z,2.4
2023-07-24T21:17:53.785Z,2.2
2023-07-24T21:22:38.013Z,2.9
2023-07-24T21:27:22.039Z,2.7
2023-07-24T21:32:06.474Z,3.1
2023-07-24T21:36:50.737Z,2.9
2023-07-24T21:41:35.020Z,2.3
2023-07-24T21:46:19.092Z,1.7
2023-07-24T21:51:03.461Z,2.9
2023-07-24T21:55:47.433Z,3.8
2023-07-24T22:00:31.772Z,2.5
2023-07-24T22:05:15.760Z,2.3
2023-07-24T22:09:59.944Z,3
2023-07-24T22:14:44.145Z,2.5
2023-07-24T22:19:28.318Z,2
2023-07-24T22:24:12.806Z,4.9
2023-07-24T22:28:56.946Z,2.3
2023-07-24T22:33:41.160Z,3.2
2023-07-24T22:38:25.847Z,2.5
2023-07-24T22:43:10.017Z,4.8
2023-07-24T22:47:54.168Z,2.5
2023-07-24T22:52:38.436Z,3.4
2023-07-24T22:57:22.729Z,2.4
2023-07-24T23:02:06.966Z,2.4
2023-07-24T23:06:51.038Z,2.4
2023-07-24T23:11:35.229Z,3.5
2023-07-24T23:16:19.392Z,2.9
2023-07-24T23:21:03.499Z,2.6
2023-07-24T23:25:48.079Z,4
2023-07-24T23:30:32.239Z,2.3
2023-07-24T23:35:16.365Z,2.6
2023-07-24T23:40:00.631Z,2.5
2023-07-24T23:44:45.150Z,4.8
2023-07-24T23:49:29.376Z,3.2
2023-07-24T23:54:13.508Z,2.9
2023-07-24T23:58:57.894Z,2.4
